Time;durP1;ratioP1;P1;durP2;ratioP2;P2;SDS_P1;SDS_P2;PMS_P1;PMS_P2;Temp;Humidity;BMP_temperature;BMP_pressure;BME280_temperature;BME280_humidity;BME280_pressure;Samples;Min_cycle;Max_cycle;Signal;HPM_P1;HPM_P2
2022/08/24 00:00:23;;;;;;;;;;;20.20;99.90;;;;;;4993892;28;19933;-64
2022/08/24 00:02:49;;;;;;;;;;;20.20;99.90;;;;;;4994488;28;19910;-64
2022/08/24 00:05:14;;;;;;;;;;;20.20;99.90;;;;;;4993290;28;20380;-65
2022/08/24 00:07:40;;;;;;;;;;;20.10;99.90;;;;;;4994426;28;19980;-64
2022/08/24 00:10:07;;;;;;;;;;;20.10;99.90;;;;;;4994407;28;19910;-64
2022/08/24 00:12:32;;;;;;;;;;;20.10;99.90;;;;;;4994405;28;20391;-64
2022/08/24 00:14:58;;;;;;;;;;;20.10;99.90;;;;;;4994185;28;19910;-63
2022/08/24 00:17:24;;;;;;;;;;;20.00;99.90;;;;;;4994141;28;19910;-64
2022/08/24 00:19:49;;;;;;;;;;;19.90;99.90;;;;;;4994288;28;19909;-64
2022/08/24 00:22:15;;;;;;;;;;;19.90;99.90;;;;;;4994305;28;20418;-64
2022/08/24 00:24:40;;;;;;;;;;;20.00;99.90;;;;;;4993126;28;19937;-64
2022/08/24 00:27:06;;;;;;;;;;;19.90;99.90;;;;;;4994027;28;20008;-64
2022/08/24 00:29:32;;;;;;;;;;;19.90;99.90;;;;;;4994202;28;20387;-64
2022/08/24 00:31:57;;;;;;;;;;;19.90;99.90;;;;;;4993980;28;19909;-64
2022/08/24 00:34:24;;;;;;;;;;;19.80;99.90;;;;;;4994203;28;19910;-64
2022/08/24 00:36:49;;;;;;;;;;;19.80;99.90;;;;;;4994203;28;19996;-64
2022/08/24 00:39:15;;;;;;;;;;;19.70;99.90;;;;;;4993887;28;19953;-64
2022/08/24 00:41:42;;;;;;;;;;;19.70;99.90;;;;;;4994050;28;19969;-64
2022/08/24 00:44:09;;;;;;;;;;;19.60;99.90;;;;;;4993840;28;19960;-64
2022/08/24 00:46:41;;;;;;;;;;;19.50;99.90;;;;;;4993782;28;19916;-63
2022/08/24 00:49:11;;;;;;;;;;;19.40;99.90;;;;;;4994054;28;19909;-64
2022/08/24 00:51:39;;;;;;;;;;;19.40;99.90;;;;;;4994035;28;19945;-63
2022/08/24 00:54:07;;;;;;;;;;;19.30;99.90;;;;;;4994001;28;19949;-64
2022/08/24 00:56:34;;;;;;;;;;;19.30;99.90;;;;;;4993935;28;19941;-63
2022/08/24 00:59:03;;;;;;;;;;;19.30;99.90;;;;;;4993700;28;19913;-63
2022/08/24 01:01:30;;;;;;;;;;;19.30;99.90;;;;;;4954974;28;19926;-64
2022/08/24 01:03:56;;;;;;;;;;;19.30;99.90;;;;;;4954996;28;19918;-64
2022/08/24 01:06:21;;;;;;;;;;;19.40;99.90;;;;;;4955041;28;19921;-63
2022/08/24 01:08:47;;;;;;;;;;;19.30;99.90;;;;;;4957615;28;19911;-64
2022/08/24 01:11:14;;;;;;;;;;;19.30;99.90;;;;;;4958455;28;19910;-63
2022/08/24 01:13:42;;;;;;;;;;;19.30;99.90;;;;;;4958955;28;20436;-63
2022/08/24 01:16:08;;;;;;;;;;;19.30;99.90;;;;;;4958610;28;20325;-63
2022/08/24 01:18:49;;;;;;;;;;;19.20;99.90;;;;;;4958567;28;19998;-63
2022/08/24 01:21:33;;;;;;;;;;;19.10;99.90;;;;;;4958422;28;20373;-63
2022/08/24 01:24:00;;;;;;;;;;;19.10;99.90;;;;;;4958469;28;19910;-63
2022/08/24 01:29:05;;;;;;;;;;;19.00;99.90;;;;;;5091304;27;19919;-64
2022/08/24 01:31:31;;;;;;;;;;;19.00;99.90;;;;;;5091181;28;19912;-64
2022/08/24 01:33:56;;;;;;;;;;;18.90;99.90;;;;;;5091394;28;19909;-64
2022/08/24 01:36:32;;;;;;;;;;;18.90;99.90;;;;;;5091175;28;19908;-64
2022/08/24 01:39:01;;;;;;;;;;;18.90;99.90;;;;;;5089702;28;19912;-64
2022/08/24 01:41:26;;;;;;;;;;;18.80;99.90;;;;;;5090999;28;19908;-64
2022/08/24 01:43:52;;;;;;;;;;;18.80;99.90;;;;;;5091165;28;20278;-64
2022/08/24 01:46:17;;;;;;;;;;;18.80;99.90;;;;;;5091169;28;19931;-64
2022/08/24 01:48:43;;;;;;;;;;;18.80;99.90;;;;;;5091042;28;19950;-64
2022/08/24 01:51:09;;;;;;;;;;;18.80;99.90;;;;;;5091080;28;20362;-64
2022/08/24 01:53:35;;;;;;;;;;;18.80;99.90;;;;;;5091026;28;20049;-64
2022/08/24 01:56:01;;;;;;;;;;;18.70;99.90;;;;;;5090990;28;19909;-64
2022/08/24 01:58:26;;;;;;;;;;;18.70;99.90;;;;;;5090969;28;20294;-64
2022/08/24 02:00:52;;;;;;;;;;;18.70;99.90;;;;;;5090868;28;20416;-64
2022/08/24 02:03:17;;;;;;;;;;;18.80;99.90;;;;;;5090613;28;19915;-64
2022/08/24 02:05:43;;;;;;;;;;;18.80;99.90;;;;;;5090809;28;19950;-64
2022/08/24 02:08:09;;;;;;;;;;;18.80;99.90;;;;;;5090326;28;19958;-64
2022/08/24 02:10:34;;;;;;;;;;;18.70;99.90;;;;;;5090707;28;19913;-64
2022/08/24 02:13:01;;;;;;;;;;;18.70;99.90;;;;;;5090475;28;19991;-64
2022/08/24 02:15:28;;;;;;;;;;;18.60;99.90;;;;;;5090625;28;19908;-64
2022/08/24 02:17:54;;;;;;;;;;;18.60;99.90;;;;;;5090585;28;20363;-64
2022/08/24 02:20:20;;;;;;;;;;;18.50;99.90;;;;;;5090557;28;20424;-65
2022/08/24 02:22:46;;;;;;;;;;;18.40;99.90;;;;;;5090496;28;19908;-64
2022/08/24 02:25:12;;;;;;;;;;;18.40;99.90;;;;;;5090428;28;19958;-64
2022/08/24 02:27:37;;;;;;;;;;;18.30;99.90;;;;;;5098565;28;19923;-64
2022/08/24 02:30:03;;;;;;;;;;;18.30;99.90;;;;;;5110666;28;19908;-64
2022/08/24 02:32:29;;;;;;;;;;;18.20;99.90;;;;;;5110633;28;19956;-64
2022/08/24 02:34:54;;;;;;;;;;;18.20;99.90;;;;;;5110546;28;19938;-64
2022/08/24 02:37:20;;;;;;;;;;;18.20;99.90;;;;;;5110272;28;19943;-64
2022/08/24 02:39:45;;;;;;;;;;;18.20;99.90;;;;;;5100382;28;19909;-64
2022/08/24 02:42:10;;;;;;;;;;;18.20;99.90;;;;;;5096600;28;19909;-64
2022/08/24 02:44:36;;;;;;;;;;;18.20;99.90;;;;;;5096804;28;19908;-64
2022/08/24 02:47:02;;;;;;;;;;;18.10;99.90;;;;;;5096702;28;19912;-64
2022/08/24 02:49:27;;;;;;;;;;;18.10;99.90;;;;;;5096683;28;20355;-64
2022/08/24 02:51:53;;;;;;;;;;;18.10;99.90;;;;;;5096656;28;19963;-64
2022/08/24 02:54:18;;;;;;;;;;;18.00;99.90;;;;;;5096366;28;20005;-65
2022/08/24 02:56:44;;;;;;;;;;;18.00;99.90;;;;;;5096359;28;19965;-64
2022/08/24 02:59:10;;;;;;;;;;;17.90;99.90;;;;;;5096293;28;19961;-64
2022/08/24 03:01:36;;;;;;;;;;;17.80;99.90;;;;;;5096165;28;20280;-64
2022/08/24 03:04:01;;;;;;;;;;;17.80;99.90;;;;;;5096429;28;19908;-64
2022/08/24 03:06:27;;;;;;;;;;;17.70;99.90;;;;;;5096123;28;19915;-64
2022/08/24 03:08:52;;;;;;;;;;;17.70;99.90;;;;;;5096089;28;19912;-64
2022/08/24 03:11:18;;;;;;;;;;;17.70;99.90;;;;;;5096296;28;19914;-65
2022/08/24 03:13:44;;;;;;;;;;;17.70;99.90;;;;;;5096248;28;20366;-64
2022/08/24 03:16:10;;;;;;;;;;;17.60;99.90;;;;;;5095962;28;19909;-64
2022/08/24 03:18:35;;;;;;;;;;;17.60;99.90;;;;;;5096180;28;20404;-64
2022/08/24 03:21:02;;;;;;;;;;;17.60;99.90;;;;;;5096124;28;19923;-64
2022/08/24 03:23:27;;;;;;;;;;;17.60;99.90;;;;;;5096088;28;20363;-64
2022/08/24 03:25:53;;;;;;;;;;;17.60;99.90;;;;;;5096035;28;19992;-64
2022/08/24 03:28:19;;;;;;;;;;;17.60;99.90;;;;;;5095472;28;19920;-64
2022/08/24 03:30:45;;;;;;;;;;;17.60;99.90;;;;;;5095938;28;19908;-64
2022/08/24 03:33:11;;;;;;;;;;;17.60;99.90;;;;;;5095881;28;20312;-64
2022/08/24 03:35:37;;;;;;;;;;;17.50;99.90;;;;;;5095805;28;19914;-64
2022/08/24 03:38:03;;;;;;;;;;;17.50;99.90;;;;;;5077816;28;19914;-64
2022/08/24 03:40:32;;;;;;;;;;;17.50;99.90;;;;;;5095713;28;19909;-64
2022/08/24 03:42:58;;;;;;;;;;;17.40;99.90;;;;;;5095671;28;20347;-64
2022/08/24 03:45:24;;;;;;;;;;;17.40;99.90;;;;;;5095398;28;19923;-64
2022/08/24 03:47:49;;;;;;;;;;;17.30;99.90;;;;;;5095368;28;19912;-65
2022/08/24 03:50:15;;;;;;;;;;;17.30;99.90;;;;;;5094881;28;19916;-64
2022/08/24 03:52:40;;;;;;;;;;;17.30;99.90;;;;;;5077121;28;19908;-64
2022/08/24 03:55:07;;;;;;;;;;;17.30;99.90;;;;;;5077103;28;19923;-64
2022/08/24 03:57:33;;;;;;;;;;;17.30;99.90;;;;;;5095425;28;20389;-64
2022/08/24 03:59:59;;;;;;;;;;;17.20;99.90;;;;;;5095368;28;19908;-64
2022/08/24 04:02:25;;;;;;;;;;;17.20;99.90;;;;;;5095049;28;19913;-64
2022/08/24 04:04:51;;;;;;;;;;;17.20;99.90;;;;;;5095251;28;19912;-64
2022/08/24 04:07:16;;;;;;;;;;;17.20;99.90;;;;;;5094866;28;19949;-64
2022/08/24 04:09:42;;;;;;;;;;;17.20;99.90;;;;;;5095213;28;19908;-64
2022/08/24 04:12:07;;;;;;;;;;;17.30;99.90;;;;;;5094851;28;19908;-64
2022/08/24 04:14:33;;;;;;;;;;;17.30;99.90;;;;;;5095043;28;20389;-64
2022/08/24 04:16:59;;;;;;;;;;;17.30;99.90;;;;;;5094997;28;20427;-64
2022/08/24 04:19:25;;;;;;;;;;;17.30;99.90;;;;;;5076849;28;20427;-64
2022/08/24 04:21:50;;;;;;;;;;;17.30;99.90;;;;;;5094644;28;19998;-64
2022/08/24 04:24:16;;;;;;;;;;;17.30;99.90;;;;;;5094880;28;19933;-64
2022/08/24 04:26:41;;;;;;;;;;;17.30;99.90;;;;;;5094321;28;19908;-65
2022/08/24 04:29:08;;;;;;;;;;;17.30;99.90;;;;;;5094804;28;20366;-64
2022/08/24 04:31:34;;;;;;;;;;;17.30;99.90;;;;;;5094779;28;19916;-64
2022/08/24 04:34:00;;;;;;;;;;;17.20;99.90;;;;;;5094613;28;19916;-64
2022/08/24 04:36:25;;;;;;;;;;;17.20;99.90;;;;;;5076305;28;19908;-64
2022/08/24 04:38:51;;;;;;;;;;;17.20;99.90;;;;;;5094341;28;19916;-64
2022/08/24 04:41:19;;;;;;;;;;;17.20;99.90;;;;;;5094591;28;19943;-64
2022/08/24 04:43:45;;;;;;;;;;;17.20;99.90;;;;;;5094584;28;19916;-64
2022/08/24 04:46:13;;;;;;;;;;;17.30;99.90;;;;;;5094492;28;19916;-64
2022/08/24 04:48:40;;;;;;;;;;;17.30;99.90;;;;;;5094115;28;19955;-64
2022/08/24 04:51:06;;;;;;;;;;;17.30;99.90;;;;;;5076334;28;20354;-64
2022/08/24 04:53:32;;;;;;;;;;;17.30;99.90;;;;;;5094149;28;19996;-65
2022/08/24 04:55:59;;;;;;;;;;;17.40;99.90;;;;;;5076023;28;19908;-65
2022/08/24 04:58:25;;;;;;;;;;;17.50;99.90;;;;;;5094032;28;20057;-65
2022/08/24 05:00:50;;;;;;;;;;;17.50;99.90;;;;;;5094087;28;19915;-65
2022/08/24 05:03:16;;;;;;;;;;;17.60;99.90;;;;;;5094053;28;19912;-65
2022/08/24 05:05:43;;;;;;;;;;;17.60;99.90;;;;;;5094262;28;19994;-64
2022/08/24 05:08:10;;;;;;;;;;;17.70;99.90;;;;;;5094088;28;20294;-64
2022/08/24 05:10:37;;;;;;;;;;;17.70;99.90;;;;;;5094147;28;20333;-65
2022/08/24 05:13:03;;;;;;;;;;;17.80;99.90;;;;;;5094155;28;20366;-65
2022/08/24 05:15:28;;;;;;;;;;;17.90;99.90;;;;;;5093871;28;20003;-65
2022/08/24 05:17:53;;;;;;;;;;;18.10;99.90;;;;;;5094017;28;20299;-65
2022/08/24 05:20:19;;;;;;;;;;;18.20;99.90;;;;;;5094006;28;19915;-65
2022/08/24 05:22:44;;;;;;;;;;;18.30;99.90;;;;;;5093998;28;20416;-64
2022/08/24 05:25:10;;;;;;;;;;;18.40;99.90;;;;;;5093977;28;19992;-65
2022/08/24 05:27:35;;;;;;;;;;;18.50;99.90;;;;;;5075412;28;19979;-65
2022/08/24 05:30:02;;;;;;;;;;;18.70;99.90;;;;;;5093997;28;19908;-64
2022/08/24 05:32:27;;;;;;;;;;;18.80;99.90;;;;;;5094044;28;20311;-65
2022/08/24 05:34:52;;;;;;;;;;;19.00;99.90;;;;;;5093603;28;20008;-65
2022/08/24 05:37:18;;;;;;;;;;;19.10;99.90;;;;;;5093864;28;19992;-65
2022/08/24 05:39:44;;;;;;;;;;;19.30;99.90;;;;;;5093918;28;20386;-65
2022/08/24 05:42:09;;;;;;;;;;;19.40;99.90;;;;;;5093645;28;19917;-65
2022/08/24 05:44:35;;;;;;;;;;;19.60;99.90;;;;;;5093815;28;20285;-65
2022/08/24 05:47:01;;;;;;;;;;;20.10;99.90;;;;;;5093476;28;19912;-64
2022/08/24 05:49:27;;;;;;;;;;;20.70;99.90;;;;;;5093464;28;20301;-65
2022/08/24 05:51:52;;;;;;;;;;;21.90;99.90;;;;;;5093486;28;19914;-65
2022/08/24 05:54:18;;;;;;;;;;;23.60;99.90;;;;;;5075422;28;19912;-65
2022/08/24 05:56:44;;;;;;;;;;;25.10;99.90;;;;;;5093448;28;20328;-65
2022/08/24 05:59:10;;;;;;;;;;;26.40;99.90;;;;;;5093675;28;19908;-65
2022/08/24 06:01:36;;;;;;;;;;;27.80;99.10;;;;;;5093605;28;19989;-65
2022/08/24 06:04:03;;;;;;;;;;;28.70;95.40;;;;;;5084004;28;19913;-63
2022/08/24 06:06:28;;;;;;;;;;;29.20;93.00;;;;;;5075420;28;19919;-63
2022/08/24 06:08:55;;;;;;;;;;;29.90;90.70;;;;;;5084803;28;19917;-63
2022/08/24 06:11:23;;;;;;;;;;;29.70;89.00;;;;;;5082862;28;20015;-64
2022/08/24 06:13:50;;;;;;;;;;;30.20;88.20;;;;;;5084105;28;19912;-64
2022/08/24 06:16:16;;;;;;;;;;;30.20;86.10;;;;;;5077012;28;19909;-67
2022/08/24 06:18:41;;;;;;;;;;;30.30;85.70;;;;;;5094244;28;19918;-67
2022/08/24 06:21:09;;;;;;;;;;;30.50;83.10;;;;;;5096833;28;20362;-67
2022/08/24 06:23:35;;;;;;;;;;;29.80;83.20;;;;;;5093203;28;20015;-67
2022/08/24 06:28:50;;;;;;;;;;;30.70;81.10;;;;;;5081365;28;19927;-67
2022/08/24 06:31:16;;;;;;;;;;;30.40;80.90;;;;;;5091847;28;19943;-67
2022/08/24 06:33:42;;;;;;;;;;;30.70;81.10;;;;;;5095827;28;20008;-66
2022/08/24 06:36:07;;;;;;;;;;;30.80;80.60;;;;;;5099470;28;20374;-67
2022/08/24 06:38:33;;;;;;;;;;;32.10;78.00;;;;;;5096018;28;20266;-67
2022/08/24 06:40:59;;;;;;;;;;;31.20;76.80;;;;;;5091710;28;19920;-67
2022/08/24 06:43:24;;;;;;;;;;;31.20;77.80;;;;;;5096380;28;19912;-67
2022/08/24 06:45:50;;;;;;;;;;;32.10;74.80;;;;;;5095618;28;19908;-67
2022/08/24 06:48:16;;;;;;;;;;;31.60;75.40;;;;;;5092500;28;19912;-67
2022/08/24 06:50:41;;;;;;;;;;;32.00;73.70;;;;;;5101532;28;19933;-67
2022/08/24 06:53:07;;;;;;;;;;;31.80;73.50;;;;;;5100425;28;20378;-67
2022/08/24 06:55:32;;;;;;;;;;;32.10;72.00;;;;;;5108505;28;19916;-67
2022/08/24 06:57:58;;;;;;;;;;;32.20;73.30;;;;;;5102023;28;19953;-67
2022/08/24 07:00:24;;;;;;;;;;;32.90;70.00;;;;;;5093716;28;19999;-67
2022/08/24 07:02:49;;;;;;;;;;;32.90;71.60;;;;;;5094680;28;19908;-67
2022/08/24 07:05:15;;;;;;;;;;;32.60;70.00;;;;;;5080427;28;20007;-66
2022/08/24 07:07:41;;;;;;;;;;;32.60;69.00;;;;;;5077419;28;19917;-67
2022/08/24 07:10:08;;;;;;;;;;;31.60;71.00;;;;;;5088431;28;19916;-67
2022/08/24 07:12:34;;;;;;;;;;;31.50;72.20;;;;;;5080488;28;19935;-67
2022/08/24 07:14:59;;;;;;;;;;;31.50;72.50;;;;;;5097734;28;20320;-67
2022/08/24 07:17:25;;;;;;;;;;;31.10;73.60;;;;;;5084177;28;19917;-67
2022/08/24 07:19:50;;;;;;;;;;;30.50;74.10;;;;;;5084804;28;19912;-67
2022/08/24 07:22:16;;;;;;;;;;;29.30;77.50;;;;;;5095136;28;19912;-66
2022/08/24 07:24:41;;;;;;;;;;;29.10;79.00;;;;;;5084385;28;19916;-66
2022/08/24 07:27:07;;;;;;;;;;;29.10;79.00;;;;;;5084993;28;20285;-66
2022/08/24 07:29:32;;;;;;;;;;;28.90;79.90;;;;;;5090138;28;19912;-66
2022/08/24 07:31:58;;;;;;;;;;;29.30;78.80;;;;;;5095425;28;19919;-66
2022/08/24 07:34:23;;;;;;;;;;;29.90;77.50;;;;;;5095367;28;20023;-67
2022/08/24 07:36:49;;;;;;;;;;;30.10;75.80;;;;;;5096608;28;19908;-67
2022/08/24 07:39:15;;;;;;;;;;;30.00;77.10;;;;;;5094215;28;19916;-68
2022/08/24 07:41:42;;;;;;;;;;;29.80;76.00;;;;;;5075700;28;19908;-68
2022/08/24 07:44:09;;;;;;;;;;;29.90;75.90;;;;;;5074623;28;20409;-68
2022/08/24 07:46:34;;;;;;;;;;;29.40;75.00;;;;;;5094182;28;20168;-67
2022/08/24 07:49:00;;;;;;;;;;;29.40;79.20;;;;;;5086770;28;19974;-68
2022/08/24 07:51:26;;;;;;;;;;;29.90;77.40;;;;;;5093643;28;19963;-65
2022/08/24 07:53:51;;;;;;;;;;;30.50;74.40;;;;;;5074873;28;19965;-66
2022/08/24 07:56:17;;;;;;;;;;;32.00;70.90;;;;;;5087824;28;19972;-66
2022/08/24 07:58:43;;;;;;;;;;;32.50;68.60;;;;;;5085172;28;19912;-66
2022/08/24 08:01:09;;;;;;;;;;;32.50;68.10;;;;;;5094504;28;20281;-66
2022/08/24 08:03:35;;;;;;;;;;;33.10;68.00;;;;;;5089947;28;19920;-67
2022/08/24 08:06:02;;;;;;;;;;;34.00;68.00;;;;;;5092467;28;19914;-66
2022/08/24 08:08:28;;;;;;;;;;;34.90;62.70;;;;;;5082869;28;20328;-67
2022/08/24 08:10:53;;;;;;;;;;;35.30;60.00;;;;;;5093244;28;19924;-67
2022/08/24 08:13:19;;;;;;;;;;;35.00;59.60;;;;;;5072129;28;20286;-67
2022/08/24 08:15:45;;;;;;;;;;;34.80;59.80;;;;;;5101804;28;19922;-67
2022/08/24 08:18:11;;;;;;;;;;;34.70;59.40;;;;;;5087738;28;20368;-67
2022/08/24 08:20:38;;;;;;;;;;;35.00;59.90;;;;;;5114128;28;20421;-67
2022/08/24 08:25:51;;;;;;;;;;;35.50;59.50;;;;;;5091034;28;19912;-67
2022/08/24 08:28:17;;;;;;;;;;;35.10;59.50;;;;;;5088315;28;19920;-67
2022/08/24 08:30:44;;;;;;;;;;;35.70;58.80;;;;;;5110131;28;19912;-68
2022/08/24 08:33:09;;;;;;;;;;;35.10;58.90;;;;;;5095221;28;19919;-67
2022/08/24 08:35:36;;;;;;;;;;;34.80;59.00;;;;;;5069731;28;19913;-67
2022/08/24 08:38:02;;;;;;;;;;;34.60;59.00;;;;;;5104880;28;20321;-67
2022/08/24 08:40:48;;;;;;;;;;;35.10;59.50;;;;;;5099191;28;19909;-67
2022/08/24 08:43:23;;;;;;;;;;;35.10;58.20;;;;;;5097575;28;19911;-67
2022/08/24 08:46:04;;;;;;;;;;;36.20;57.70;;;;;;5107984;28;19969;-67
2022/08/24 08:48:49;;;;;;;;;;;36.50;57.60;;;;;;5090964;28;19916;-67
2022/08/24 08:51:35;;;;;;;;;;;36.40;57.00;;;;;;5101626;28;19927;-68
2022/08/24 08:54:21;;;;;;;;;;;35.30;57.10;;;;;;5093919;28;19915;-68
2022/08/24 08:56:58;;;;;;;;;;;35.70;57.00;;;;;;5091990;28;19912;-68
2022/08/24 08:59:44;;;;;;;;;;;36.70;56.00;;;;;;5105773;28;19919;-68
2022/08/24 09:02:29;;;;;;;;;;;36.90;54.90;;;;;;5093771;28;19915;-68
2022/08/24 09:05:04;;;;;;;;;;;37.50;53.70;;;;;;5096140;28;19920;-68
2022/08/24 09:07:43;;;;;;;;;;;35.80;54.50;;;;;;5096206;28;20408;-67
2022/08/24 09:10:17;;;;;;;;;;;35.50;56.20;;;;;;5093418;28;19915;-68
2022/08/24 09:12:52;;;;;;;;;;;35.60;55.80;;;;;;5093618;28;20020;-68
2022/08/24 09:15:20;;;;;;;;;;;35.20;56.60;;;;;;5088214;28;19912;-68
2022/08/24 09:17:55;;;;;;;;;;;35.30;57.20;;;;;;5102511;28;19935;-67
2022/08/24 09:23:05;;;;;;;;;;;36.50;55.50;;;;;;5070541;28;19912;-66
2022/08/24 09:25:36;;;;;;;;;;;36.40;55.50;;;;;;5068695;28;19924;-66
2022/08/24 09:28:21;;;;;;;;;;;36.30;54.50;;;;;;5069796;28;20291;-66
2022/08/24 09:30:57;;;;;;;;;;;35.90;55.20;;;;;;5070318;28;19916;-66
2022/08/24 09:33:29;;;;;;;;;;;36.10;55.30;;;;;;5070570;28;19958;-66
2022/08/24 09:36:15;;;;;;;;;;;35.50;56.20;;;;;;5069892;28;19913;-66
2022/08/24 09:38:49;;;;;;;;;;;35.70;55.50;;;;;;5059605;28;19999;-67
2022/08/24 09:41:34;;;;;;;;;;;36.40;54.80;;;;;;5074432;28;19917;-67
2022/08/24 09:44:11;;;;;;;;;;;36.60;54.30;;;;;;5070013;28;19918;-67
2022/08/24 09:46:57;;;;;;;;;;;36.70;55.60;;;;;;5070624;28;19909;-67
2022/08/24 09:49:42;;;;;;;;;;;36.20;56.00;;;;;;5070142;28;19916;-67
2022/08/24 09:52:28;;;;;;;;;;;36.50;56.20;;;;;;5065410;28;19921;-67
2022/08/24 09:55:13;;;;;;;;;;;37.20;54.40;;;;;;5060364;28;19925;-67
2022/08/24 09:57:59;;;;;;;;;;;36.70;54.80;;;;;;5054359;28;19917;-67
2022/08/24 10:00:33;;;;;;;;;;;37.10;53.20;;;;;;5063700;28;19913;-67
2022/08/24 10:03:20;;;;;;;;;;;36.70;53.10;;;;;;5063847;28;19923;-67
2022/08/24 10:06:06;;;;;;;;;;;36.90;53.50;;;;;;5066476;28;19913;-67
2022/08/24 10:08:51;;;;;;;;;;;37.20;53.80;;;;;;5065076;28;19943;-67
2022/08/24 10:11:37;;;;;;;;;;;36.80;54.20;;;;;;5056974;28;19959;-67
2022/08/24 10:14:22;;;;;;;;;;;37.30;54.00;;;;;;5062969;28;19938;-67
2022/08/24 10:16:51;;;;;;;;;;;37.00;52.70;;;;;;5071189;28;19913;-68
2022/08/24 10:19:37;;;;;;;;;;;37.10;53.60;;;;;;5075910;28;20442;-67
2022/08/24 10:22:22;;;;;;;;;;;36.60;53.20;;;;;;5058193;28;19932;-65
2022/08/24 10:24:59;;;;;;;;;;;36.20;53.20;;;;;;5070635;28;19944;-64
2022/08/24 10:27:32;;;;;;;;;;;36.10;53.30;;;;;;5073028;28;20341;-64
2022/08/24 10:30:18;;;;;;;;;;;36.40;53.20;;;;;;5079485;28;20003;-65
2022/08/24 10:33:06;;;;;;;;;;;36.70;54.40;;;;;;5059488;28;19944;-64
2022/08/24 10:35:35;;;;;;;;;;;37.20;52.70;;;;;;5056372;28;19967;-64
2022/08/24 10:41:16;;;;;;;;;;;36.00;53.80;;;;;;5068194;28;19971;-65
2022/08/24 10:44:02;;;;;;;;;;;36.60;54.00;;;;;;5043834;28;19924;-65
2022/08/24 10:46:47;;;;;;;;;;;36.40;54.90;;;;;;5046299;28;19913;-67
2022/08/24 10:49:23;;;;;;;;;;;35.90;54.10;;;;;;5046089;28;20314;-66
2022/08/24 10:52:08;;;;;;;;;;;36.30;53.60;;;;;;5048168;28;19909;-65
2022/08/24 10:54:35;;;;;;;;;;;36.00;54.20;;;;;;5052253;28;20435;-66
2022/08/24 10:57:04;;;;;;;;;;;35.40;54.50;;;;;;5071559;28;19931;-65
2022/08/24 10:59:35;;;;;;;;;;;35.10;54.80;;;;;;5063374;28;19908;-65
2022/08/24 11:02:04;;;;;;;;;;;34.90;55.90;;;;;;5059661;28;20003;-65
2022/08/24 11:04:31;;;;;;;;;;;34.70;54.90;;;;;;5048263;28;19955;-65
2022/08/24 11:07:16;;;;;;;;;;;34.70;56.10;;;;;;5054534;28;19913;-65
2022/08/24 11:09:44;;;;;;;;;;;34.70;55.00;;;;;;5048748;28;20545;-65
2022/08/24 11:12:22;;;;;;;;;;;34.20;55.70;;;;;;5052237;28;20390;-65
2022/08/24 11:14:48;;;;;;;;;;;33.90;55.90;;;;;;5057073;28;19913;-65
2022/08/24 11:17:14;;;;;;;;;;;33.50;56.60;;;;;;5056551;28;19969;-64
2022/08/24 11:19:41;;;;;;;;;;;33.90;57.40;;;;;;5051796;28;20256;-65
2022/08/24 11:22:23;;;;;;;;;;;34.10;56.40;;;;;;5077074;28;20378;-64
2022/08/24 11:24:51;;;;;;;;;;;34.10;56.40;;;;;;5073543;28;19920;-65
2022/08/24 11:27:23;;;;;;;;;;;34.50;57.10;;;;;;5070401;28;20472;-65
2022/08/24 11:29:51;;;;;;;;;;;34.00;56.10;;;;;;5072301;28;20387;-64
2022/08/24 11:32:25;;;;;;;;;;;34.10;56.90;;;;;;5071331;28;19920;-65
2022/08/24 11:34:51;;;;;;;;;;;33.60;57.90;;;;;;5077187;28;19913;-64
2022/08/24 11:37:20;;;;;;;;;;;33.20;58.10;;;;;;5074063;28;19916;-65
2022/08/24 11:39:46;;;;;;;;;;;33.60;59.30;;;;;;5085906;28;20011;-64
2022/08/24 11:42:17;;;;;;;;;;;34.10;58.30;;;;;;5079438;28;20011;-64
2022/08/24 11:45:02;;;;;;;;;;;33.90;56.80;;;;;;5073457;28;20760;-65
2022/08/24 11:47:47;;;;;;;;;;;34.30;58.00;;;;;;5072176;28;19921;-64
2022/08/24 11:50:19;;;;;;;;;;;34.10;57.40;;;;;;5076983;28;19955;-64
2022/08/24 11:53:04;;;;;;;;;;;34.60;57.50;;;;;;5076179;28;20278;-64
2022/08/24 11:55:41;;;;;;;;;;;34.10;56.80;;;;;;5074818;28;19920;-65
2022/08/24 11:58:11;;;;;;;;;;;34.10;56.70;;;;;;5073584;28;20301;-64
2022/08/24 12:00:42;;;;;;;;;;;33.70;58.40;;;;;;5070709;28;19989;-64
2022/08/24 12:03:28;;;;;;;;;;;34.20;58.00;;;;;;5056051;28;19917;-64
2022/08/24 12:05:59;;;;;;;;;;;34.10;57.80;;;;;;5073000;28;19962;-65
2022/08/24 12:08:29;;;;;;;;;;;34.20;57.80;;;;;;5072410;28;20371;-64
2022/08/24 12:11:02;;;;;;;;;;;33.90;58.30;;;;;;5073210;28;19976;-64
2022/08/24 12:13:34;;;;;;;;;;;34.10;57.80;;;;;;5062893;28;19912;-64
2022/08/24 12:16:07;;;;;;;;;;;34.40;57.60;;;;;;5075921;28;19951;-64
2022/08/24 12:18:42;;;;;;;;;;;34.40;57.60;;;;;;5086777;28;19921;-64
2022/08/24 12:21:09;;;;;;;;;;;34.30;56.90;;;;;;5068460;28;19924;-64
2022/08/24 12:23:39;;;;;;;;;;;34.20;57.80;;;;;;5068893;28;19950;-64
2022/08/24 12:26:08;;;;;;;;;;;34.00;57.70;;;;;;5070425;28;19912;-65
2022/08/24 12:28:36;;;;;;;;;;;34.30;58.80;;;;;;5051060;28;19920;-65
2022/08/24 12:31:06;;;;;;;;;;;34.20;57.40;;;;;;5062860;28;19913;-64
2022/08/24 12:33:32;;;;;;;;;;;33.80;57.60;;;;;;5071511;28;19920;-65
2022/08/24 12:36:01;;;;;;;;;;;33.50;58.30;;;;;;5070283;28;20409;-65
2022/08/24 12:38:32;;;;;;;;;;;33.70;57.50;;;;;;5071396;28;19908;-64
2022/08/24 12:41:02;;;;;;;;;;;33.70;58.40;;;;;;5069124;28;19919;-64
2022/08/24 12:43:35;;;;;;;;;;;33.30;58.60;;;;;;5082161;28;20347;-64
2022/08/24 12:46:01;;;;;;;;;;;33.50;58.80;;;;;;5076283;28;19920;-64
2022/08/24 12:48:45;;;;;;;;;;;33.70;57.90;;;;;;5071790;28;20290;-65
2022/08/24 12:51:31;;;;;;;;;;;33.40;57.10;;;;;;5067931;28;20313;-65
2022/08/24 12:54:03;;;;;;;;;;;33.80;58.60;;;;;;5067995;28;19916;-64
2022/08/24 12:56:49;;;;;;;;;;;33.90;57.60;;;;;;5066085;28;19912;-64
2022/08/24 12:59:35;;;;;;;;;;;34.00;57.40;;;;;;5063436;28;20429;-65
2022/08/24 13:02:02;;;;;;;;;;;34.30;57.00;;;;;;5051900;28;20445;-65
2022/08/24 13:04:38;;;;;;;;;;;34.20;56.50;;;;;;5065716;28;19963;-65
2022/08/24 13:07:06;;;;;;;;;;;34.20;56.80;;;;;;5052200;28;19916;-64
2022/08/24 13:09:33;;;;;;;;;;;33.60;56.10;;;;;;5039332;28;19958;-65
2022/08/24 13:12:19;;;;;;;;;;;33.50;56.90;;;;;;5064067;28;20255;-64
2022/08/24 13:14:48;;;;;;;;;;;33.60;56.70;;;;;;5071758;28;19920;-64
2022/08/24 13:17:16;;;;;;;;;;;33.70;55.60;;;;;;5072757;28;20070;-64
2022/08/24 13:19:43;;;;;;;;;;;33.90;56.90;;;;;;5066023;28;19912;-64
2022/08/24 13:22:12;;;;;;;;;;;33.80;56.10;;;;;;5073108;28;19925;-64
2022/08/24 13:24:41;;;;;;;;;;;33.60;56.20;;;;;;5058777;28;19920;-65
2022/08/24 13:30:04;;;;;;;;;;;33.70;55.50;;;;;;5065844;28;19925;-66
2022/08/24 13:32:35;;;;;;;;;;;33.40;56.10;;;;;;5065158;28;19921;-65
2022/08/24 13:35:21;;;;;;;;;;;33.60;55.90;;;;;;5063125;28;19920;-65
2022/08/24 13:38:06;;;;;;;;;;;33.70;55.70;;;;;;5067040;28;20382;-65
2022/08/24 13:40:41;;;;;;;;;;;33.70;56.50;;;;;;5065637;28;20346;-65
2022/08/24 13:46:20;;;;;;;;;;;34.10;57.10;;;;;;5113459;27;19920;-65
2022/08/24 13:49:02;;;;;;;;;;;34.30;55.90;;;;;;5114181;28;20305;-65
2022/08/24 13:51:33;;;;;;;;;;;33.90;54.60;;;;;;5105150;28;19920;-65
2022/08/24 13:54:19;;;;;;;;;;;33.80;53.40;;;;;;5117317;28;20290;-66
2022/08/24 13:56:47;;;;;;;;;;;33.70;53.70;;;;;;5116575;28;19912;-65
2022/08/24 13:59:21;;;;;;;;;;;33.70;53.70;;;;;;5116399;28;20370;-65
2022/08/24 14:01:58;;;;;;;;;;;33.60;54.20;;;;;;5116065;28;19994;-65
2022/08/24 14:04:26;;;;;;;;;;;33.40;54.70;;;;;;5125381;28;19916;-65
2022/08/24 14:06:58;;;;;;;;;;;33.60;53.30;;;;;;5113714;28;19912;-64
2022/08/24 14:09:44;;;;;;;;;;;33.50;54.10;;;;;;5111258;28;19925;-64
2022/08/24 14:12:21;;;;;;;;;;;33.70;55.10;;;;;;5110549;28;19919;-65
2022/08/24 14:20:13;;;;;;;;;;;33.60;55.30;;;;;;5067345;28;19917;-65
2022/08/24 14:22:59;;;;;;;;;;;33.50;55.00;;;;;;5045507;28;19917;-65
2022/08/24 14:25:29;;;;;;;;;;;33.70;54.80;;;;;;5036745;28;19913;-65
2022/08/24 14:30:38;;;;;;;;;;;33.80;54.80;;;;;;5050913;28;19917;-65
2022/08/24 14:33:16;;;;;;;;;;;33.70;54.80;;;;;;5046524;28;19921;-66
2022/08/24 14:36:02;;;;;;;;;;;33.70;56.00;;;;;;5050084;28;19951;-64
2022/08/24 14:38:35;;;;;;;;;;;34.00;55.50;;;;;;5048940;28;19931;-65
2022/08/24 14:41:09;;;;;;;;;;;33.70;55.30;;;;;;5047724;28;20284;-65
2022/08/24 14:43:54;;;;;;;;;;;33.20;56.00;;;;;;5050627;28;19960;-64
2022/08/24 14:46:24;;;;;;;;;;;33.40;55.80;;;;;;5050349;28;20326;-65
2022/08/24 14:48:56;;;;;;;;;;;33.60;54.80;;;;;;5066107;28;19920;-67
2022/08/24 14:51:41;;;;;;;;;;;33.50;54.60;;;;;;5050580;28;19909;-64
2022/08/24 14:54:14;;;;;;;;;;;33.80;53.50;;;;;;5050250;28;19913;-65
2022/08/24 14:56:49;;;;;;;;;;;33.70;53.40;;;;;;5066148;28;20409;-65
2022/08/24 14:59:22;;;;;;;;;;;33.70;54.30;;;;;;5050405;28;19999;-65